sensor_id;sensor_type;location;lat;lon;timestamp;P1;durP1;ratioP1;P2;durP2;ratioP2
15929;SDS011;8064;51.142;4.780;2022-12-07T00:03:33;7.97;;;6.07;;
15929;SDS011;8064;51.142;4.780;2022-12-07T00:06:00;9.53;;;5.93;;
15929;SDS011;8064;51.142;4.780;2022-12-07T00:08:26;8.73;;;6.53;;
15929;SDS011;8064;51.142;4.780;2022-12-07T00:10:51;8.20;;;6.03;;
15929;SDS011;8064;51.142;4.780;2022-12-07T00:13:17;7.77;;;5.60;;
15929;SDS011;8064;51.142;4.780;2022-12-07T00:15:43;9.17;;;6.50;;
15929;SDS011;8064;51.142;4.780;2022-12-07T00:18:09;7.77;;;6.00;;
15929;SDS011;8064;51.142;4.780;2022-12-07T00:20:35;7.80;;;5.87;;
15929;SDS011;8064;51.142;4.780;2022-12-07T00:23:01;9.23;;;6.00;;
15929;SDS011;8064;51.142;4.780;2022-12-07T00:25:26;8.00;;;5.70;;
15929;SDS011;8064;51.142;4.780;2022-12-07T00:27:52;7.63;;;6.00;;
15929;SDS011;8064;51.142;4.780;2022-12-07T00:30:21;8.57;;;5.87;;
15929;SDS011;8064;51.142;4.780;2022-12-07T00:32:47;7.20;;;5.80;;
15929;SDS011;8064;51.142;4.780;2022-12-07T00:35:13;7.10;;;5.60;;
15929;SDS011;8064;51.142;4.780;2022-12-07T00:37:39;7.90;;;6.53;;
15929;SDS011;8064;51.142;4.780;2022-12-07T00:40:05;9.07;;;6.67;;
15929;SDS011;8064;51.142;4.780;2022-12-07T00:42:31;10.27;;;5.80;;
15929;SDS011;8064;51.142;4.780;2022-12-07T00:44:57;8.17;;;6.43;;
15929;SDS011;8064;51.142;4.780;2022-12-07T00:47:22;7.17;;;6.10;;
15929;SDS011;8064;51.142;4.780;2022-12-07T00:49:48;8.00;;;5.63;;
15929;SDS011;8064;51.142;4.780;2022-12-07T00:52:14;8.03;;;6.57;;
15929;SDS011;8064;51.142;4.780;2022-12-07T00:54:40;11.63;;;6.00;;
15929;SDS011;8064;51.142;4.780;2022-12-07T00:57:05;7.17;;;5.30;;
15929;SDS011;8064;51.142;4.780;2022-12-07T00:59:31;8.57;;;5.50;;
15929;SDS011;8064;51.142;4.780;2022-12-07T01:01:57;8.13;;;5.63;;
15929;SDS011;8064;51.142;4.780;2022-12-07T01:04:23;10.67;;;5.80;;
15929;SDS011;8064;51.142;4.780;2022-12-07T01:06:48;6.93;;;5.30;;
15929;SDS011;8064;51.142;4.780;2022-12-07T01:09:14;6.93;;;5.40;;
15929;SDS011;8064;51.142;4.780;2022-12-07T01:11:40;7.17;;;5.40;;
15929;SDS011;8064;51.142;4.780;2022-12-07T01:14:05;7.50;;;5.30;;
15929;SDS011;8064;51.142;4.780;2022-12-07T01:16:32;9.10;;;6.07;;
15929;SDS011;8064;51.142;4.780;2022-12-07T01:18:58;7.50;;;5.97;;
15929;SDS011;8064;51.142;4.780;2022-12-07T01:21:26;9.10;;;5.97;;
15929;SDS011;8064;51.142;4.780;2022-12-07T01:23:53;7.63;;;5.43;;
15929;SDS011;8064;51.142;4.780;2022-12-07T01:26:20;8.77;;;6.43;;
15929;SDS011;8064;51.142;4.780;2022-12-07T01:28:47;9.60;;;5.70;;
15929;SDS011;8064;51.142;4.780;2022-12-07T01:31:14;6.97;;;5.73;;
15929;SDS011;8064;51.142;4.780;2022-12-07T01:33:42;8.27;;;5.53;;
15929;SDS011;8064;51.142;4.780;2022-12-07T01:36:13;10.03;;;6.03;;
15929;SDS011;8064;51.142;4.780;2022-12-07T01:38:45;8.93;;;6.43;;
15929;SDS011;8064;51.142;4.780;2022-12-07T01:41:13;8.27;;;5.73;;
15929;SDS011;8064;51.142;4.780;2022-12-07T01:46:37;6.70;;;5.27;;
15929;SDS011;8064;51.142;4.780;2022-12-07T01:49:03;8.77;;;5.47;;
15929;SDS011;8064;51.142;4.780;2022-12-07T01:51:33;6.93;;;5.20;;
15929;SDS011;8064;51.142;4.780;2022-12-07T01:54:00;6.40;;;5.33;;
15929;SDS011;8064;51.142;4.780;2022-12-07T01:56:26;11.33;;;5.70;;
15929;SDS011;8064;51.142;4.780;2022-12-07T01:58:52;10.43;;;6.00;;
15929;SDS011;8064;51.142;4.780;2022-12-07T02:01:20;7.27;;;5.03;;
15929;SDS011;8064;51.142;4.780;2022-12-07T02:03:46;8.73;;;5.60;;
15929;SDS011;8064;51.142;4.780;2022-12-07T02:06:13;7.37;;;5.70;;
15929;SDS011;8064;51.142;4.780;2022-12-07T02:08:44;9.17;;;5.60;;
15929;SDS011;8064;51.142;4.780;2022-12-07T02:11:11;9.93;;;6.17;;
15929;SDS011;8064;51.142;4.780;2022-12-07T02:13:38;6.97;;;5.43;;
15929;SDS011;8064;51.142;4.780;2022-12-07T02:16:12;10.90;;;6.67;;
15929;SDS011;8064;51.142;4.780;2022-12-07T02:24:22;7.77;;;5.90;;
15929;SDS011;8064;51.142;4.780;2022-12-07T02:27:07;11.40;;;5.93;;
15929;SDS011;8064;51.142;4.780;2022-12-07T02:29:49;7.83;;;5.67;;
15929;SDS011;8064;51.142;4.780;2022-12-07T02:32:36;6.77;;;5.57;;
15929;SDS011;8064;51.142;4.780;2022-12-07T02:35:15;7.30;;;5.47;;
15929;SDS011;8064;51.142;4.780;2022-12-07T02:40:41;7.10;;;5.60;;
15929;SDS011;8064;51.142;4.780;2022-12-07T02:43:24;7.53;;;6.30;;
15929;SDS011;8064;51.142;4.780;2022-12-07T02:45:53;8.43;;;6.17;;
15929;SDS011;8064;51.142;4.780;2022-12-07T02:48:21;9.17;;;6.70;;
15929;SDS011;8064;51.142;4.780;2022-12-07T02:50:50;9.03;;;6.83;;
15929;SDS011;8064;51.142;4.780;2022-12-07T02:56:04;8.80;;;6.57;;
15929;SDS011;8064;51.142;4.780;2022-12-07T02:58:46;10.03;;;6.23;;
15929;SDS011;8064;51.142;4.780;2022-12-07T03:01:28;9.70;;;6.33;;
15929;SDS011;8064;51.142;4.780;2022-12-07T03:04:43;11.47;;;6.53;;
15929;SDS011;8064;51.142;4.780;2022-12-07T03:06:50;7.93;;;5.63;;
15929;SDS011;8064;51.142;4.780;2022-12-07T03:12:35;7.13;;;5.93;;
15929;SDS011;8064;51.142;4.780;2022-12-07T03:15:31;8.53;;;5.93;;
15929;SDS011;8064;51.142;4.780;2022-12-07T03:18:04;8.33;;;6.53;;
15929;SDS011;8064;51.142;4.780;2022-12-07T03:20:32;10.57;;;7.10;;
15929;SDS011;8064;51.142;4.780;2022-12-07T03:23:00;9.13;;;6.43;;
15929;SDS011;8064;51.142;4.780;2022-12-07T03:25:31;9.07;;;5.97;;
15929;SDS011;8064;51.142;4.780;2022-12-07T03:28:00;6.70;;;5.73;;
15929;SDS011;8064;51.142;4.780;2022-12-07T03:30:36;6.80;;;5.50;;
15929;SDS011;8064;51.142;4.780;2022-12-07T03:33:11;7.10;;;5.10;;
15929;SDS011;8064;51.142;4.780;2022-12-07T03:36:04;6.60;;;5.23;;
15929;SDS011;8064;51.142;4.780;2022-12-07T03:38:40;6.20;;;4.87;;
15929;SDS011;8064;51.142;4.780;2022-12-07T03:41:31;6.40;;;4.80;;
15929;SDS011;8064;51.142;4.780;2022-12-07T03:43:58;5.90;;;4.93;;
15929;SDS011;8064;51.142;4.780;2022-12-07T03:46:42;5.03;;;4.40;;
15929;SDS011;8064;51.142;4.780;2022-12-07T03:49:27;6.83;;;4.80;;
15929;SDS011;8064;51.142;4.780;2022-12-07T03:52:02;6.60;;;4.57;;
15929;SDS011;8064;51.142;4.780;2022-12-07T03:54:49;5.73;;;4.77;;
15929;SDS011;8064;51.142;4.780;2022-12-07T03:57:20;5.80;;;4.10;;
15929;SDS011;8064;51.142;4.780;2022-12-07T03:59:47;6.90;;;4.40;;
15929;SDS011;8064;51.142;4.780;2022-12-07T04:02:14;5.17;;;4.17;;
15929;SDS011;8064;51.142;4.780;2022-12-07T04:04:40;4.57;;;4.17;;
15929;SDS011;8064;51.142;4.780;2022-12-07T04:07:08;5.27;;;4.43;;
15929;SDS011;8064;51.142;4.780;2022-12-07T04:09:34;4.27;;;3.87;;
15929;SDS011;8064;51.142;4.780;2022-12-07T04:12:00;4.67;;;3.90;;
15929;SDS011;8064;51.142;4.780;2022-12-07T04:14:26;4.50;;;3.90;;
15929;SDS011;8064;51.142;4.780;2022-12-07T04:16:55;6.73;;;4.63;;
15929;SDS011;8064;51.142;4.780;2022-12-07T04:19:23;6.00;;;4.57;;
15929;SDS011;8064;51.142;4.780;2022-12-07T04:21:51;7.07;;;4.73;;
15929;SDS011;8064;51.142;4.780;2022-12-07T04:24:16;9.33;;;5.67;;
15929;SDS011;8064;51.142;4.780;2022-12-07T04:26:43;10.03;;;6.20;;
15929;SDS011;8064;51.142;4.780;2022-12-07T04:29:10;8.03;;;5.60;;
15929;SDS011;8064;51.142;4.780;2022-12-07T04:31:36;9.13;;;5.53;;
15929;SDS011;8064;51.142;4.780;2022-12-07T04:34:02;8.27;;;5.40;;
15929;SDS011;8064;51.142;4.780;2022-12-07T04:36:28;5.70;;;5.10;;
15929;SDS011;8064;51.142;4.780;2022-12-07T04:38:55;6.80;;;4.83;;
15929;SDS011;8064;51.142;4.780;2022-12-07T04:41:21;6.50;;;5.20;;
15929;SDS011;8064;51.142;4.780;2022-12-07T04:43:55;7.77;;;6.30;;
15929;SDS011;8064;51.142;4.780;2022-12-07T04:46:22;9.13;;;6.50;;
15929;SDS011;8064;51.142;4.780;2022-12-07T04:48:49;10.80;;;6.13;;
15929;SDS011;8064;51.142;4.780;2022-12-07T04:51:15;9.30;;;6.77;;
15929;SDS011;8064;51.142;4.780;2022-12-07T04:53:45;8.83;;;6.73;;
15929;SDS011;8064;51.142;4.780;2022-12-07T04:56:10;7.67;;;6.87;;
15929;SDS011;8064;51.142;4.780;2022-12-07T04:58:36;10.10;;;7.10;;
15929;SDS011;8064;51.142;4.780;2022-12-07T05:01:02;10.20;;;7.17;;
15929;SDS011;8064;51.142;4.780;2022-12-07T05:03:28;9.47;;;6.93;;
15929;SDS011;8064;51.142;4.780;2022-12-07T05:05:54;12.57;;;7.40;;
15929;SDS011;8064;51.142;4.780;2022-12-07T05:08:19;8.97;;;7.03;;
15929;SDS011;8064;51.142;4.780;2022-12-07T05:10:45;14.57;;;7.40;;
15929;SDS011;8064;51.142;4.780;2022-12-07T05:13:11;14.97;;;7.17;;
15929;SDS011;8064;51.142;4.780;2022-12-07T05:15:36;10.77;;;7.40;;
15929;SDS011;8064;51.142;4.780;2022-12-07T05:18:02;9.93;;;7.13;;
15929;SDS011;8064;51.142;4.780;2022-12-07T05:20:28;10.30;;;7.53;;
15929;SDS011;8064;51.142;4.780;2022-12-07T05:22:54;10.27;;;7.70;;
15929;SDS011;8064;51.142;4.780;2022-12-07T05:25:20;11.10;;;7.93;;
15929;SDS011;8064;51.142;4.780;2022-12-07T05:27:45;10.53;;;7.17;;
15929;SDS011;8064;51.142;4.780;2022-12-07T05:30:12;8.90;;;6.73;;
15929;SDS011;8064;51.142;4.780;2022-12-07T05:32:38;11.43;;;7.07;;
15929;SDS011;8064;51.142;4.780;2022-12-07T05:35:03;9.97;;;6.47;;
15929;SDS011;8064;51.142;4.780;2022-12-07T05:37:30;10.03;;;6.60;;
15929;SDS011;8064;51.142;4.780;2022-12-07T05:39:55;10.30;;;7.07;;
15929;SDS011;8064;51.142;4.780;2022-12-07T05:42:21;10.13;;;7.13;;
15929;SDS011;8064;51.142;4.780;2022-12-07T05:44:47;12.13;;;7.30;;
15929;SDS011;8064;51.142;4.780;2022-12-07T05:47:13;10.27;;;6.73;;
15929;SDS011;8064;51.142;4.780;2022-12-07T05:49:40;8.23;;;6.70;;
15929;SDS011;8064;51.142;4.780;2022-12-07T05:52:06;9.50;;;6.17;;
15929;SDS011;8064;51.142;4.780;2022-12-07T05:54:32;8.60;;;6.13;;
15929;SDS011;8064;51.142;4.780;2022-12-07T05:56:58;7.73;;;6.00;;
15929;SDS011;8064;51.142;4.780;2022-12-07T05:59:24;7.73;;;6.40;;
15929;SDS011;8064;51.142;4.780;2022-12-07T06:04:20;8.23;;;6.20;;
15929;SDS011;8064;51.142;4.780;2022-12-07T06:06:46;8.73;;;6.40;;
15929;SDS011;8064;51.142;4.780;2022-12-07T06:09:12;8.17;;;5.60;;
15929;SDS011;8064;51.142;4.780;2022-12-07T06:11:39;8.10;;;5.93;;
15929;SDS011;8064;51.142;4.780;2022-12-07T06:14:24;7.83;;;6.30;;
15929;SDS011;8064;51.142;4.780;2022-12-07T06:16:49;10.43;;;6.10;;
15929;SDS011;8064;51.142;4.780;2022-12-07T06:19:16;8.80;;;5.93;;
15929;SDS011;8064;51.142;4.780;2022-12-07T06:21:42;9.17;;;6.47;;
15929;SDS011;8064;51.142;4.780;2022-12-07T06:24:09;7.73;;;5.67;;
15929;SDS011;8064;51.142;4.780;2022-12-07T06:26:37;12.60;;;7.00;;
15929;SDS011;8064;51.142;4.780;2022-12-07T06:29:03;9.07;;;6.67;;
15929;SDS011;8064;51.142;4.780;2022-12-07T06:31:29;9.77;;;6.93;;
15929;SDS011;8064;51.142;4.780;2022-12-07T06:34:01;7.93;;;6.10;;
15929;SDS011;8064;51.142;4.780;2022-12-07T06:36:28;9.40;;;7.10;;
15929;SDS011;8064;51.142;4.780;2022-12-07T06:38:54;11.80;;;8.80;;
15929;SDS011;8064;51.142;4.780;2022-12-07T06:41:20;15.00;;;8.57;;
15929;SDS011;8064;51.142;4.780;2022-12-07T06:43:47;10.93;;;7.40;;
15929;SDS011;8064;51.142;4.780;2022-12-07T06:46:13;10.27;;;8.10;;
15929;SDS011;8064;51.142;4.780;2022-12-07T06:48:39;9.67;;;7.07;;
15929;SDS011;8064;51.142;4.780;2022-12-07T06:51:05;12.57;;;8.87;;
15929;SDS011;8064;51.142;4.780;2022-12-07T06:53:31;31.50;;;27.20;;
15929;SDS011;8064;51.142;4.780;2022-12-07T06:55:57;21.97;;;19.10;;
15929;SDS011;8064;51.142;4.780;2022-12-07T06:58:23;12.40;;;9.70;;
15929;SDS011;8064;51.142;4.780;2022-12-07T07:00:49;13.10;;;8.20;;
15929;SDS011;8064;51.142;4.780;2022-12-07T07:03:15;13.03;;;8.50;;
15929;SDS011;8064;51.142;4.780;2022-12-07T07:05:41;10.63;;;7.90;;
15929;SDS011;8064;51.142;4.780;2022-12-07T07:08:08;12.80;;;6.80;;
15929;SDS011;8064;51.142;4.780;2022-12-07T07:10:34;12.13;;;7.70;;
15929;SDS011;8064;51.142;4.780;2022-12-07T07:13:00;10.30;;;7.43;;
15929;SDS011;8064;51.142;4.780;2022-12-07T07:15:26;10.37;;;7.77;;
15929;SDS011;8064;51.142;4.780;2022-12-07T07:17:52;10.47;;;6.70;;
15929;SDS011;8064;51.142;4.780;2022-12-07T07:20:18;13.93;;;7.23;;
15929;SDS011;8064;51.142;4.780;2022-12-07T07:22:43;10.17;;;6.90;;
15929;SDS011;8064;51.142;4.780;2022-12-07T07:25:09;7.13;;;5.97;;
15929;SDS011;8064;51.142;4.780;2022-12-07T07:27:35;16.50;;;11.70;;
15929;SDS011;8064;51.142;4.780;2022-12-07T07:30:01;16.33;;;13.07;;
15929;SDS011;8064;51.142;4.780;2022-12-07T07:32:27;17.50;;;13.10;;
15929;SDS011;8064;51.142;4.780;2022-12-07T07:34:53;22.50;;;18.90;;
15929;SDS011;8064;51.142;4.780;2022-12-07T07:37:19;17.53;;;11.10;;
15929;SDS011;8064;51.142;4.780;2022-12-07T07:39:45;11.40;;;9.10;;
15929;SDS011;8064;51.142;4.780;2022-12-07T07:42:10;10.93;;;7.03;;
15929;SDS011;8064;51.142;4.780;2022-12-07T07:44:36;8.13;;;6.50;;
15929;SDS011;8064;51.142;4.780;2022-12-07T07:47:02;8.87;;;6.30;;
15929;SDS011;8064;51.142;4.780;2022-12-07T07:49:28;9.20;;;6.53;;
15929;SDS011;8064;51.142;4.780;2022-12-07T07:51:55;7.77;;;5.70;;
15929;SDS011;8064;51.142;4.780;2022-12-07T07:54:22;11.07;;;6.20;;
15929;SDS011;8064;51.142;4.780;2022-12-07T07:56:48;5.97;;;5.37;;
15929;SDS011;8064;51.142;4.780;2022-12-07T07:59:14;10.53;;;6.37;;
15929;SDS011;8064;51.142;4.780;2022-12-07T08:01:41;9.50;;;7.00;;
15929;SDS011;8064;51.142;4.780;2022-12-07T08:04:08;8.40;;;5.93;;
15929;SDS011;8064;51.142;4.780;2022-12-07T08:06:33;9.30;;;6.00;;
15929;SDS011;8064;51.142;4.780;2022-12-07T08:08:59;6.67;;;5.70;;
15929;SDS011;8064;51.142;4.780;2022-12-07T08:11:25;6.17;;;5.13;;
15929;SDS011;8064;51.142;4.780;2022-12-07T08:13:51;7.13;;;4.97;;
15929;SDS011;8064;51.142;4.780;2022-12-07T08:16:16;11.27;;;5.30;;
15929;SDS011;8064;51.142;4.780;2022-12-07T08:18:42;9.87;;;5.63;;
15929;SDS011;8064;51.142;4.780;2022-12-07T08:21:12;7.30;;;4.80;;
15929;SDS011;8064;51.142;4.780;2022-12-07T08:23:39;6.40;;;4.40;;
15929;SDS011;8064;51.142;4.780;2022-12-07T08:26:06;9.07;;;4.43;;
15929;SDS011;8064;51.142;4.780;2022-12-07T08:28:34;11.07;;;5.60;;
15929;SDS011;8064;51.142;4.780;2022-12-07T08:31:00;8.30;;;5.47;;
15929;SDS011;8064;51.142;4.780;2022-12-07T08:33:27;10.10;;;5.37;;
15929;SDS011;8064;51.142;4.780;2022-12-07T08:35:52;9.67;;;6.13;;
15929;SDS011;8064;51.142;4.780;2022-12-07T08:38:18;12.17;;;5.80;;
15929;SDS011;8064;51.142;4.780;2022-12-07T08:40:44;14.13;;;5.87;;
15929;SDS011;8064;51.142;4.780;2022-12-07T08:43:10;9.27;;;5.30;;
15929;SDS011;8064;51.142;4.780;2022-12-07T08:45:35;8.40;;;4.80;;
15929;SDS011;8064;51.142;4.780;2022-12-07T08:48:02;10.63;;;5.43;;
15929;SDS011;8064;51.142;4.780;2022-12-07T08:50:33;9.53;;;4.90;;
15929;SDS011;8064;51.142;4.780;2022-12-07T08:53:01;10.20;;;5.07;;
15929;SDS011;8064;51.142;4.780;2022-12-07T08:55:29;13.37;;;7.80;;
15929;SDS011;8064;51.142;4.780;2022-12-07T08:57:57;10.17;;;6.43;;
15929;SDS011;8064;51.142;4.780;2022-12-07T09:00:23;9.37;;;5.50;;
15929;SDS011;8064;51.142;4.780;2022-12-07T09:02:50;10.37;;;5.50;;
15929;SDS011;8064;51.142;4.780;2022-12-07T09:05:15;7.63;;;5.47;;
15929;SDS011;8064;51.142;4.780;2022-12-07T09:07:42;10.83;;;5.53;;
15929;SDS011;8064;51.142;4.780;2022-12-07T09:10:09;11.97;;;5.63;;
15929;SDS011;8064;51.142;4.780;2022-12-07T09:12:35;9.57;;;5.60;;
15929;SDS011;8064;51.142;4.780;2022-12-07T09:15:01;6.83;;;5.27;;
15929;SDS011;8064;51.142;4.780;2022-12-07T09:17:27;9.30;;;5.47;;
15929;SDS011;8064;51.142;4.780;2022-12-07T09:19:56;10.60;;;5.53;;
15929;SDS011;8064;51.142;4.780;2022-12-07T09:22:22;11.27;;;5.10;;
15929;SDS011;8064;51.142;4.780;2022-12-07T09:24:47;7.97;;;5.80;;
15929;SDS011;8064;51.142;4.780;2022-12-07T09:27:13;7.40;;;5.30;;
15929;SDS011;8064;51.142;4.780;2022-12-07T09:29:39;9.67;;;6.00;;
15929;SDS011;8064;51.142;4.780;2022-12-07T09:32:05;9.43;;;4.90;;
15929;SDS011;8064;51.142;4.780;2022-12-07T09:34:31;8.13;;;5.40;;
15929;SDS011;8064;51.142;4.780;2022-12-07T09:36:57;9.03;;;4.80;;
15929;SDS011;8064;51.142;4.780;2022-12-07T09:39:23;11.33;;;4.90;;
15929;SDS011;8064;51.142;4.780;2022-12-07T09:41:48;6.77;;;4.30;;
15929;SDS011;8064;51.142;4.780;2022-12-07T09:44:18;8.83;;;4.83;;
15929;SDS011;8064;51.142;4.780;2022-12-07T09:46:48;8.30;;;4.40;;
15929;SDS011;8064;51.142;4.780;2022-12-07T09:49:25;10.33;;;4.20;;
15929;SDS011;8064;51.142;4.780;2022-12-07T09:54:54;9.00;;;3.83;;
15929;SDS011;8064;51.142;4.780;2022-12-07T09:57:21;8.07;;;4.00;;
15929;SDS011;8064;51.142;4.780;2022-12-07T09:59:59;7.67;;;4.40;;
15929;SDS011;8064;51.142;4.780;2022-12-07T10:02:40;7.63;;;3.57;;
15929;SDS011;8064;51.142;4.780;2022-12-07T10:05:16;7.97;;;3.87;;
15929;SDS011;8064;51.142;4.780;2022-12-07T10:07:47;7.33;;;3.50;;
15929;SDS011;8064;51.142;4.780;2022-12-07T10:10:14;5.73;;;3.70;;
15929;SDS011;8064;51.142;4.780;2022-12-07T10:13:00;8.70;;;4.10;;
15929;SDS011;8064;51.142;4.780;2022-12-07T10:18:25;5.97;;;3.67;;
15929;SDS011;8064;51.142;4.780;2022-12-07T10:21:03;6.18;;;3.58;;
15929;SDS011;8064;51.142;4.780;2022-12-07T10:23:39;5.38;;;3.40;;
15929;SDS011;8064;51.142;4.780;2022-12-07T10:29:02;6.93;;;3.40;;
15929;SDS011;8064;51.142;4.780;2022-12-07T10:31:39;7.40;;;3.42;;
15929;SDS011;8064;51.142;4.780;2022-12-07T10:36:52;6.30;;;3.40;;
15929;SDS011;8064;51.142;4.780;2022-12-07T10:39:31;5.65;;;2.88;;
15929;SDS011;8064;51.142;4.780;2022-12-07T10:42:20;7.17;;;2.83;;
15929;SDS011;8064;51.142;4.780;2022-12-07T10:44:48;7.20;;;3.23;;
15929;SDS011;8064;51.142;4.780;2022-12-07T10:52:37;7.63;;;2.83;;
15929;SDS011;8064;51.142;4.780;2022-12-07T10:57:56;7.70;;;2.90;;
15929;SDS011;8064;51.142;4.780;2022-12-07T11:00:39;6.10;;;3.00;;
15929;SDS011;8064;51.142;4.780;2022-12-07T11:06:01;10.77;;;3.17;;
15929;SDS011;8064;51.142;4.780;2022-12-07T11:08:44;8.40;;;2.97;;
15929;SDS011;8064;51.142;4.780;2022-12-07T11:11:42;6.07;;;2.90;;
15929;SDS011;8064;51.142;4.780;2022-12-07T11:38:50;6.70;;;2.47;;
15929;SDS011;8064;51.142;4.780;2022-12-07T11:41:21;5.93;;;2.40;;
15929;SDS011;8064;51.142;4.780;2022-12-07T11:46:38;11.37;;;2.43;;
15929;SDS011;8064;51.142;4.780;2022-12-07T11:51:46;5.90;;;2.40;;
15929;SDS011;8064;51.142;4.780;2022-12-07T11:54:23;8.33;;;2.87;;
15929;SDS011;8064;51.142;4.780;2022-12-07T11:56:53;10.17;;;4.57;;
15929;SDS011;8064;51.142;4.780;2022-12-07T11:59:32;7.83;;;2.83;;
15929;SDS011;8064;51.142;4.780;2022-12-07T12:02:17;5.63;;;2.20;;
15929;SDS011;8064;51.142;4.780;2022-12-07T12:07:19;5.93;;;2.13;;
15929;SDS011;8064;51.142;4.780;2022-12-07T12:09:49;9.63;;;2.30;;
15929;SDS011;8064;51.142;4.780;2022-12-07T12:12:31;8.53;;;2.30;;
15929;SDS011;8064;51.142;4.780;2022-12-07T12:20:35;5.17;;;1.97;;
15929;SDS011;8064;51.142;4.780;2022-12-07T12:25:46;7.10;;;2.20;;
15929;SDS011;8064;51.142;4.780;2022-12-07T12:28:20;6.00;;;2.30;;
15929;SDS011;8064;51.142;4.780;2022-12-07T12:33:46;4.10;;;2.10;;
15929;SDS011;8064;51.142;4.780;2022-12-07T12:38:49;5.90;;;2.30;;
15929;SDS011;8064;51.142;4.780;2022-12-07T12:46:45;5.30;;;2.63;;
15929;SDS011;8064;51.142;4.780;2022-12-07T12:51:46;5.90;;;2.73;;
15929;SDS011;8064;51.142;4.780;2022-12-07T12:54:15;8.13;;;3.07;;
15929;SDS011;8064;51.142;4.780;2022-12-07T12:59:22;8.50;;;2.97;;
15929;SDS011;8064;51.142;4.780;2022-12-07T13:02:46;5.07;;;3.10;;
15929;SDS011;8064;51.142;4.780;2022-12-07T13:15:39;6.57;;;2.97;;
15929;SDS011;8064;51.142;4.780;2022-12-07T13:18:40;9.00;;;3.13;;
15929;SDS011;8064;51.142;4.780;2022-12-07T13:26:03;6.00;;;2.70;;
15929;SDS011;8064;51.142;4.780;2022-12-07T13:28:46;5.73;;;2.27;;
15929;SDS011;8064;51.142;4.780;2022-12-07T13:32:17;4.70;;;2.10;;
15929;SDS011;8064;51.142;4.780;2022-12-07T13:34:28;5.50;;;2.50;;
15929;SDS011;8064;51.142;4.780;2022-12-07T13:36:54;4.03;;;1.80;;
15929;SDS011;8064;51.142;4.780;2022-12-07T13:39:22;5.23;;;2.43;;
15929;SDS011;8064;51.142;4.780;2022-12-07T13:41:51;4.33;;;1.93;;
15929;SDS011;8064;51.142;4.780;2022-12-07T13:44:19;4.00;;;2.03;;
15929;SDS011;8064;51.142;4.780;2022-12-07T13:46:50;4.07;;;2.00;;
15929;SDS011;8064;51.142;4.780;2022-12-07T13:49:26;4.87;;;1.90;;
15929;SDS011;8064;51.142;4.780;2022-12-07T13:54:49;3.37;;;1.83;;
15929;SDS011;8064;51.142;4.780;2022-12-07T13:57:26;2.70;;;1.57;;
15929;SDS011;8064;51.142;4.780;2022-12-07T13:59:54;4.93;;;2.00;;
15929;SDS011;8064;51.142;4.780;2022-12-07T14:02:21;5.33;;;1.90;;
15929;SDS011;8064;51.142;4.780;2022-12-07T14:05:23;3.73;;;1.73;;
15929;SDS011;8064;51.142;4.780;2022-12-07T14:07:58;3.33;;;1.70;;
15929;SDS011;8064;51.142;4.780;2022-12-07T14:10:37;3.63;;;2.00;;
15929;SDS011;8064;51.142;4.780;2022-12-07T14:16:03;3.07;;;1.50;;
15929;SDS011;8064;51.142;4.780;2022-12-07T14:18:53;3.90;;;1.30;;
15929;SDS011;8064;51.142;4.780;2022-12-07T14:21:21;3.40;;;1.70;;
15929;SDS011;8064;51.142;4.780;2022-12-07T14:26:34;2.70;;;1.83;;
15929;SDS011;8064;51.142;4.780;2022-12-07T14:31:44;4.30;;;2.30;;
15929;SDS011;8064;51.142;4.780;2022-12-07T14:34:13;4.57;;;2.50;;
15929;SDS011;8064;51.142;4.780;2022-12-07T14:36:39;3.97;;;2.70;;
15929;SDS011;8064;51.142;4.780;2022-12-07T14:39:04;6.83;;;2.73;;
15929;SDS011;8064;51.142;4.780;2022-12-07T14:41:30;6.60;;;3.23;;
15929;SDS011;8064;51.142;4.780;2022-12-07T14:44:15;7.73;;;3.80;;
15929;SDS011;8064;51.142;4.780;2022-12-07T14:46:41;8.57;;;4.00;;
15929;SDS011;8064;51.142;4.780;2022-12-07T14:49:06;7.23;;;4.23;;
15929;SDS011;8064;51.142;4.780;2022-12-07T14:51:32;7.60;;;4.80;;
15929;SDS011;8064;51.142;4.780;2022-12-07T14:54:00;6.60;;;4.17;;
15929;SDS011;8064;51.142;4.780;2022-12-07T14:56:26;5.37;;;3.60;;
15929;SDS011;8064;51.142;4.780;2022-12-07T14:58:52;5.63;;;3.30;;
15929;SDS011;8064;51.142;4.780;2022-12-07T15:01:18;4.83;;;3.00;;
15929;SDS011;8064;51.142;4.780;2022-12-07T15:03:44;3.90;;;3.20;;
15929;SDS011;8064;51.142;4.780;2022-12-07T15:06:12;5.53;;;2.83;;
15929;SDS011;8064;51.142;4.780;2022-12-07T15:08:39;3.90;;;2.53;;
15929;SDS011;8064;51.142;4.780;2022-12-07T15:11:05;4.00;;;2.60;;
15929;SDS011;8064;51.142;4.780;2022-12-07T15:13:31;2.97;;;2.40;;
15929;SDS011;8064;51.142;4.780;2022-12-07T15:16:16;3.63;;;2.20;;
15929;SDS011;8064;51.142;4.780;2022-12-07T15:18:44;4.10;;;2.43;;
15929;SDS011;8064;51.142;4.780;2022-12-07T15:21:13;3.63;;;1.97;;
15929;SDS011;8064;51.142;4.780;2022-12-07T15:23:40;5.17;;;1.87;;
15929;SDS011;8064;51.142;4.780;2022-12-07T15:26:06;2.30;;;1.60;;
15929;SDS011;8064;51.142;4.780;2022-12-07T15:28:33;2.80;;;1.90;;
15929;SDS011;8064;51.142;4.780;2022-12-07T15:30:59;2.30;;;1.70;;
15929;SDS011;8064;51.142;4.780;2022-12-07T15:33:24;3.20;;;1.97;;
15929;SDS011;8064;51.142;4.780;2022-12-07T15:35:50;5.33;;;2.67;;
15929;SDS011;8064;51.142;4.780;2022-12-07T15:38:16;3.73;;;2.00;;
15929;SDS011;8064;51.142;4.780;2022-12-07T15:40:42;4.20;;;2.20;;
15929;SDS011;8064;51.142;4.780;2022-12-07T15:43:10;5.37;;;2.47;;
15929;SDS011;8064;51.142;4.780;2022-12-07T15:45:56;3.40;;;2.40;;
15929;SDS011;8064;51.142;4.780;2022-12-07T15:48:21;4.60;;;2.37;;
15929;SDS011;8064;51.142;4.780;2022-12-07T15:50:47;4.90;;;2.20;;
15929;SDS011;8064;51.142;4.780;2022-12-07T15:53:13;4.70;;;2.20;;
15929;SDS011;8064;51.142;4.780;2022-12-07T15:55:39;2.80;;;1.80;;
15929;SDS011;8064;51.142;4.780;2022-12-07T15:58:05;3.50;;;1.80;;
15929;SDS011;8064;51.142;4.780;2022-12-07T16:00:32;2.73;;;1.83;;
15929;SDS011;8064;51.142;4.780;2022-12-07T16:02:58;5.23;;;1.70;;
15929;SDS011;8064;51.142;4.780;2022-12-07T16:05:23;3.73;;;1.90;;
15929;SDS011;8064;51.142;4.780;2022-12-07T16:07:49;5.10;;;2.10;;
15929;SDS011;8064;51.142;4.780;2022-12-07T16:10:15;4.07;;;1.93;;
15929;SDS011;8064;51.142;4.780;2022-12-07T16:12:41;2.43;;;1.70;;
15929;SDS011;8064;51.142;4.780;2022-12-07T16:15:07;4.03;;;2.47;;
15929;SDS011;8064;51.142;4.780;2022-12-07T16:17:33;7.90;;;3.93;;
15929;SDS011;8064;51.142;4.780;2022-12-07T16:19:59;6.57;;;3.17;;
15929;SDS011;8064;51.142;4.780;2022-12-07T16:22:25;3.73;;;2.80;;
15929;SDS011;8064;51.142;4.780;2022-12-07T16:24:50;5.77;;;2.87;;
15929;SDS011;8064;51.142;4.780;2022-12-07T16:27:16;5.33;;;2.90;;
15929;SDS011;8064;51.142;4.780;2022-12-07T16:29:42;9.93;;;3.17;;
15929;SDS011;8064;51.142;4.780;2022-12-07T16:32:07;8.00;;;4.00;;
15929;SDS011;8064;51.142;4.780;2022-12-07T16:34:33;5.10;;;3.03;;
15929;SDS011;8064;51.142;4.780;2022-12-07T16:36:59;4.67;;;2.20;;
15929;SDS011;8064;51.142;4.780;2022-12-07T16:39:24;6.67;;;2.80;;
15929;SDS011;8064;51.142;4.780;2022-12-07T16:41:50;6.43;;;2.17;;
15929;SDS011;8064;51.142;4.780;2022-12-07T16:44:17;3.83;;;2.03;;
15929;SDS011;8064;51.142;4.780;2022-12-07T16:46:43;3.30;;;2.30;;
15929;SDS011;8064;51.142;4.780;2022-12-07T16:49:12;4.53;;;2.67;;
15929;SDS011;8064;51.142;4.780;2022-12-07T16:51:39;4.47;;;2.70;;
15929;SDS011;8064;51.142;4.780;2022-12-07T16:54:06;3.53;;;2.80;;
15929;SDS011;8064;51.142;4.780;2022-12-07T16:56:31;6.07;;;2.67;;
15929;SDS011;8064;51.142;4.780;2022-12-07T16:58:58;4.23;;;2.40;;
15929;SDS011;8064;51.142;4.780;2022-12-07T17:01:24;6.43;;;2.40;;
15929;SDS011;8064;51.142;4.780;2022-12-07T17:03:51;3.63;;;2.43;;
15929;SDS011;8064;51.142;4.780;2022-12-07T17:06:21;5.17;;;3.03;;
15929;SDS011;8064;51.142;4.780;2022-12-07T17:08:49;5.50;;;2.90;;
15929;SDS011;8064;51.142;4.780;2022-12-07T17:11:23;6.33;;;2.80;;
15929;SDS011;8064;51.142;4.780;2022-12-07T17:13:50;3.67;;;2.60;;
15929;SDS011;8064;51.142;4.780;2022-12-07T17:16:35;6.70;;;2.97;;
15929;SDS011;8064;51.142;4.780;2022-12-07T17:19:08;5.00;;;3.13;;